createdAt,value
2019-06-01T00:00:12.556Z,94.50
2019-06-01T00:02:44.112Z,94.60
2019-06-01T00:05:11.268Z,94.60
2019-06-01T00:07:40.731Z,94.80
2019-06-01T00:10:10.420Z,94.80
2019-06-01T00:12:39.367Z,94.60
2019-06-01T00:15:07.898Z,94.60
2019-06-01T00:17:36.359Z,94.70
2019-06-01T00:20:05.849Z,94.80
2019-06-01T00:22:34.289Z,94.90
2019-06-01T00:25:02.977Z,94.70
2019-06-01T00:27:31.419Z,94.50
2019-06-01T00:29:59.869Z,94.50
2019-06-01T00:32:28.572Z,94.20
2019-06-01T00:34:57.091Z,94.20
2019-06-01T00:37:25.793Z,94.20
2019-06-01T00:39:54.222Z,94.20
2019-06-01T00:42:22.918Z,94.00
2019-06-01T00:44:52.467Z,94.00
2019-06-01T00:47:21.044Z,94.00
2019-06-01T00:49:50.976Z,93.90
2019-06-01T00:52:19.806Z,93.70
2019-06-01T00:54:49.505Z,93.70
2019-06-01T00:57:18.314Z,93.50
2019-06-01T00:59:48.072Z,93.40
2019-06-01T01:02:16.709Z,93.30
2019-06-01T01:04:46.394Z,93.10
2019-06-01T01:07:15.290Z,93.10
2019-06-01T01:09:44.816Z,93.20
2019-06-01T01:12:13.609Z,93.20
2019-06-01T01:14:42.313Z,93.30
2019-06-01T01:17:10.759Z,93.30
2019-06-01T01:19:39.467Z,93.40
2019-06-01T01:22:08.170Z,93.50
2019-06-01T01:24:36.873Z,93.50
2019-06-01T01:27:05.302Z,93.30
2019-06-01T01:29:33.992Z,92.60
2019-06-01T01:32:02.422Z,92.40
2019-06-01T01:34:30.865Z,92.30
2019-06-01T01:36:59.295Z,92.40
2019-06-01T01:39:27.745Z,92.60
2019-06-01T01:41:56.367Z,92.90
2019-06-01T01:44:24.798Z,93.10
2019-06-01T01:46:53.234Z,93.20
2019-06-01T01:49:21.921Z,93.20
2019-06-01T01:51:50.434Z,93.20
2019-06-01T01:54:18.979Z,93.40
2019-06-01T01:56:47.654Z,93.20
2019-06-01T01:59:16.105Z,93.40
2019-06-01T02:01:44.541Z,93.60
2019-06-01T02:04:13.243Z,92.80
2019-06-01T02:06:41.942Z,92.40
2019-06-01T02:09:10.393Z,92.70
2019-06-01T02:11:39.155Z,92.80
2019-06-01T02:14:07.841Z,92.90
2019-06-01T02:16:36.286Z,93.00
2019-06-01T02:19:04.804Z,92.80
2019-06-01T02:21:33.475Z,92.80
2019-06-01T02:24:03.341Z,92.90
2019-06-01T02:26:31.890Z,92.90
2019-06-01T02:29:01.471Z,92.60
2019-06-01T02:31:41.849Z,92.10
2019-06-01T02:34:01.614Z,92.10
2019-06-01T02:36:31.057Z,92.30
2019-06-01T02:39:01.093Z,92.80
2019-06-01T02:41:29.892Z,92.80
2019-06-01T02:43:59.161Z,92.90
2019-06-01T02:46:27.692Z,92.90
2019-06-01T02:48:57.376Z,93.20
2019-06-01T02:51:26.150Z,93.50
2019-06-01T02:53:55.616Z,93.80
2019-06-01T02:56:24.104Z,93.70
2019-06-01T02:58:52.542Z,93.70
2019-06-01T03:01:33.052Z,93.80
2019-06-01T03:04:03.695Z,93.80
2019-06-01T03:06:32.890Z,93.80
2019-06-01T03:09:02.032Z,93.70
2019-06-01T03:11:33.819Z,93.70
2019-06-01T03:14:06.642Z,93.60
2019-06-01T03:16:40.521Z,93.30
2019-06-01T03:19:09.277Z,93.10
2019-06-01T03:21:37.811Z,92.90
2019-06-01T03:24:13.028Z,92.80
2019-06-01T03:26:44.227Z,92.60
2019-06-01T03:29:18.234Z,92.60
2019-06-01T03:31:46.983Z,92.60
2019-06-01T03:34:15.454Z,92.60
2019-06-01T03:36:44.263Z,92.60
2019-06-01T03:39:13.199Z,92.60
2019-06-01T03:41:42.661Z,92.70
2019-06-01T03:44:11.184Z,92.90
2019-06-01T03:46:39.608Z,93.00
2019-06-01T03:49:08.304Z,93.00
2019-06-01T03:51:36.746Z,93.20
2019-06-01T03:54:06.850Z,93.20
2019-06-01T03:56:35.683Z,93.30
2019-06-01T03:59:05.098Z,93.20
2019-06-01T04:01:33.902Z,93.20
2019-06-01T04:04:03.055Z,93.20
2019-06-01T04:06:31.832Z,93.20
2019-06-01T04:09:01.496Z,93.30
2019-06-01T04:11:30.085Z,93.30
2019-06-01T04:13:58.777Z,93.60
2019-06-01T04:16:27.453Z,94.20
2019-06-01T04:18:55.912Z,94.30
2019-06-01T04:21:24.600Z,94.60
2019-06-01T04:23:53.054Z,94.70
2019-06-01T04:26:21.735Z,94.70
2019-06-01T04:28:50.184Z,94.70
2019-06-01T04:31:18.882Z,94.70
2019-06-01T04:33:47.324Z,94.60
2019-06-01T04:36:15.769Z,94.70
2019-06-01T04:38:44.236Z,94.50
2019-06-01T04:41:13.993Z,94.40
2019-06-01T04:43:42.609Z,94.50
2019-06-01T04:46:12.387Z,94.60
2019-06-01T04:48:40.937Z,94.40
2019-06-01T04:51:10.526Z,94.20
2019-06-01T04:53:40.062Z,94.20
2019-06-01T04:56:09.087Z,94.20
2019-06-01T04:58:37.681Z,94.20
2019-06-01T05:01:06.907Z,94.30
2019-06-01T05:03:35.460Z,94.20
2019-06-01T05:06:05.030Z,94.10
2019-06-01T05:08:33.612Z,93.80
2019-06-01T05:11:05.196Z,93.40
2019-06-01T05:13:32.564Z,93.40
2019-06-01T05:16:00.988Z,93.50
2019-06-01T05:18:29.442Z,93.40
2019-06-01T05:20:57.882Z,93.40
2019-06-01T05:23:26.349Z,93.50
2019-06-01T05:25:54.780Z,92.80
2019-06-01T05:28:23.491Z,92.80
2019-06-01T05:30:51.968Z,92.90
2019-06-01T05:33:33.275Z,92.30
2019-06-01T05:35:50.579Z,92.20
2019-06-01T05:38:19.276Z,92.60
2019-06-01T05:40:47.714Z,92.10
2019-06-01T05:43:19.297Z,91.40
2019-06-01T05:45:46.565Z,91.50
2019-06-01T05:48:22.803Z,91.30
2019-06-01T05:50:45.473Z,90.70
2019-06-01T05:53:14.524Z,91.00
2019-06-01T05:55:43.194Z,90.60
2019-06-01T05:58:13.007Z,90.60
2019-06-01T06:00:43.136Z,90.90
2019-06-01T06:03:14.960Z,90.10
2019-06-01T06:05:42.152Z,90.10
2019-06-01T06:08:12.553Z,89.10
2019-06-01T06:10:40.767Z,90.10
2019-06-01T06:13:09.221Z,89.60
2019-06-01T06:15:37.947Z,89.20
2019-06-01T06:18:06.445Z,88.90
2019-06-01T06:20:35.119Z,89.20
2019-06-01T06:23:03.569Z,88.90
2019-06-01T06:25:33.956Z,87.20
2019-06-01T06:28:02.699Z,87.60
2019-06-01T06:30:31.140Z,88.00
2019-06-01T06:32:59.603Z,87.40
2019-06-01T06:35:28.040Z,87.60
2019-06-01T06:37:56.497Z,87.20
2019-06-01T06:40:25.189Z,86.60
2019-06-01T06:42:53.894Z,87.30
2019-06-01T06:45:22.829Z,86.30
2019-06-01T06:47:51.505Z,85.30
2019-06-01T06:50:21.342Z,85.20
2019-06-01T06:52:50.118Z,86.10
2019-06-01T06:55:19.817Z,85.00
2019-06-01T06:57:48.449Z,84.90
2019-06-01T07:00:18.509Z,84.10
2019-06-01T07:02:47.034Z,84.00
2019-06-01T07:05:15.498Z,86.10
2019-06-01T07:07:44.007Z,84.10
2019-06-01T07:10:12.703Z,83.50
2019-06-01T07:12:41.132Z,80.40
2019-06-01T07:15:09.751Z,80.10
2019-06-01T07:17:38.506Z,80.00
2019-06-01T07:20:07.407Z,77.70
2019-06-01T07:22:35.841Z,77.70
2019-06-01T07:25:07.205Z,76.50
2019-06-01T07:27:35.770Z,73.30
2019-06-01T07:30:05.403Z,71.30
2019-06-01T07:32:33.840Z,70.10
2019-06-01T07:35:02.304Z,68.00
2019-06-01T07:37:30.967Z,68.60
2019-06-01T07:39:59.786Z,65.20
2019-06-01T07:42:29.523Z,65.40
2019-06-01T07:44:58.344Z,62.50
2019-06-01T07:47:27.369Z,63.00
2019-06-01T07:49:56.079Z,60.00
2019-06-01T07:52:24.643Z,60.70
2019-06-01T07:54:53.080Z,59.30
2019-06-01T07:57:21.680Z,61.10
2019-06-01T07:59:51.249Z,59.70
2019-06-01T08:02:25.347Z,59.00
2019-06-01T08:04:54.069Z,57.50
2019-06-01T08:07:21.174Z,58.40
2019-06-01T08:09:50.527Z,54.40
2019-06-01T08:12:19.308Z,56.60
2019-06-01T08:14:48.416Z,55.10
2019-06-01T08:17:16.886Z,55.40
2019-06-01T08:19:45.568Z,56.60
2019-06-01T08:22:14.286Z,55.40
2019-06-01T08:24:43.589Z,54.80
2019-06-01T08:27:12.346Z,55.10
2019-06-01T08:29:41.139Z,52.20
2019-06-01T08:32:09.557Z,52.60
2019-06-01T08:34:38.286Z,50.50
2019-06-01T08:37:06.996Z,51.70
2019-06-01T08:39:35.460Z,51.10
2019-06-01T08:42:03.974Z,52.10
2019-06-01T08:44:33.772Z,51.20
2019-06-01T08:47:02.254Z,49.30
2019-06-01T08:49:32.073Z,49.60
2019-06-01T08:52:01.272Z,52.50
2019-06-01T08:54:30.346Z,53.50
2019-06-01T08:56:59.132Z,52.30
2019-06-01T08:59:28.405Z,52.00
2019-06-01T09:01:57.225Z,50.40
2019-06-01T09:04:26.612Z,51.10
2019-06-01T09:06:55.350Z,49.40
2019-06-01T09:09:24.925Z,48.40
2019-06-01T09:11:53.715Z,49.20
2019-06-01T09:14:22.601Z,49.90
2019-06-01T09:16:51.305Z,47.30
2019-06-01T09:19:19.773Z,49.80
2019-06-01T09:21:48.554Z,48.50
2019-06-01T09:24:16.999Z,48.00
2019-06-01T09:26:45.718Z,47.20
2019-06-01T09:29:15.367Z,47.80
2019-06-01T09:31:44.332Z,49.10
2019-06-01T09:34:13.353Z,48.60
2019-06-01T09:36:41.801Z,49.10
2019-06-01T09:39:10.258Z,48.60
2019-06-01T09:41:38.704Z,48.70
2019-06-01T09:44:07.438Z,49.50
2019-06-01T09:46:37.415Z,50.00
2019-06-01T09:49:06.187Z,49.70
2019-06-01T09:51:35.679Z,50.00
2019-06-01T09:54:04.317Z,48.60
2019-06-01T09:56:35.209Z,48.70
2019-06-01T09:59:03.553Z,48.50
2019-06-01T10:01:32.436Z,51.00
2019-06-01T10:04:01.235Z,48.80
2019-06-01T10:06:30.402Z,49.00
2019-06-01T10:08:59.208Z,48.80
2019-06-01T10:11:27.919Z,49.00
2019-06-01T10:13:56.349Z,49.40
2019-06-01T10:16:24.802Z,50.30
2019-06-01T10:18:53.529Z,49.80
2019-06-01T10:21:21.972Z,50.90
2019-06-01T10:23:50.401Z,50.10
2019-06-01T10:26:19.091Z,51.20
2019-06-01T10:28:47.875Z,51.50
2019-06-01T10:31:16.333Z,51.40
2019-06-01T10:33:44.765Z,49.80
2019-06-01T10:36:20.510Z,50.90
2019-06-01T10:38:43.649Z,50.00
2019-06-01T10:41:12.123Z,50.40
2019-06-01T10:43:41.724Z,50.40
2019-06-01T10:46:10.733Z,47.40
2019-06-01T10:48:40.132Z,47.50
2019-06-01T10:51:08.987Z,47.10
2019-06-01T10:53:38.155Z,46.00
2019-06-01T10:56:06.982Z,47.30
2019-06-01T10:58:52.431Z,45.90
2019-06-01T11:01:05.579Z,45.10
2019-06-01T11:03:34.642Z,44.70
2019-06-01T11:06:03.140Z,44.50
2019-06-01T11:08:32.810Z,44.70
2019-06-01T11:11:01.516Z,43.40
2019-06-01T11:13:29.952Z,41.50
2019-06-01T11:15:58.401Z,41.90
2019-06-01T11:18:26.841Z,41.20
2019-06-01T11:20:55.550Z,44.30
2019-06-01T11:23:23.985Z,44.00
2019-06-01T11:25:52.434Z,42.50
2019-06-01T11:28:21.106Z,42.20
2019-06-01T11:30:49.542Z,40.70
2019-06-01T11:33:18.276Z,40.40
2019-06-01T11:35:46.770Z,41.10
2019-06-01T11:38:15.466Z,40.70
2019-06-01T11:40:44.866Z,39.90
2019-06-01T11:43:13.381Z,41.60
2019-06-01T11:45:42.908Z,41.80
2019-06-01T11:48:11.699Z,41.70
2019-06-01T11:50:41.178Z,41.80
2019-06-01T11:53:09.772Z,44.60
2019-06-01T11:55:39.224Z,41.90
2019-06-01T11:58:07.754Z,42.70
2019-06-01T12:00:37.547Z,41.80
2019-06-01T12:03:06.135Z,39.90
2019-06-01T12:05:35.799Z,42.40
2019-06-01T12:08:04.779Z,40.20
2019-06-01T12:10:33.202Z,38.40
2019-06-01T12:13:01.665Z,38.90
2019-06-01T12:15:30.171Z,38.00
2019-06-01T12:17:58.620Z,39.10
2019-06-01T12:20:27.045Z,40.30
2019-06-01T12:22:55.728Z,40.70
2019-06-01T12:25:24.163Z,39.60
2019-06-01T12:27:52.968Z,37.50
2019-06-01T12:30:21.526Z,37.40
2019-06-01T12:32:50.330Z,37.00
2019-06-01T12:35:19.044Z,37.40
2019-06-01T12:38:04.815Z,39.40
2019-06-01T12:40:17.735Z,39.10
2019-06-01T12:42:46.232Z,39.40
2019-06-01T12:45:16.779Z,38.70
2019-06-01T12:47:48.381Z,39.70
2019-06-01T12:50:15.555Z,37.90
2019-06-01T12:52:44.478Z,36.90
2019-06-01T12:55:15.225Z,37.40
2019-06-01T12:57:44.896Z,37.00
2019-06-01T13:00:15.819Z,36.30
2019-06-01T13:02:49.514Z,36.50
2019-06-01T13:05:15.309Z,38.20
2019-06-01T13:07:57.560Z,38.50
2019-06-01T13:10:14.166Z,36.50
2019-06-01T13:12:43.134Z,38.00
2019-06-01T13:15:13.473Z,36.70
2019-06-01T13:17:43.123Z,37.30
2019-06-01T13:20:14.057Z,38.00
2019-06-01T13:22:43.519Z,37.40
2019-06-01T13:25:12.296Z,34.70
2019-06-01T13:27:42.416Z,36.20
2019-06-01T13:30:11.499Z,34.80
2019-06-01T13:32:39.942Z,35.40
2019-06-01T13:35:09.657Z,36.80
2019-06-01T13:37:38.345Z,35.70
2019-06-01T13:40:08.306Z,35.80
2019-06-01T13:42:37.899Z,35.60
2019-06-01T13:45:07.003Z,35.30
2019-06-01T13:47:35.716Z,34.60
2019-06-01T13:50:08.776Z,35.30
2019-06-01T13:52:37.318Z,35.90
2019-06-01T13:55:07.291Z,37.50
2019-06-01T13:57:39.277Z,37.30
2019-06-01T14:00:08.741Z,36.70
2019-06-01T14:02:37.541Z,37.30
2019-06-01T14:05:08.180Z,38.20
2019-06-01T14:07:36.704Z,39.60
2019-06-01T14:10:08.508Z,38.10
2019-06-01T14:12:36.964Z,37.10
2019-06-01T14:15:07.043Z,35.20
2019-06-01T14:17:35.610Z,35.90
2019-06-01T14:20:06.144Z,35.70
2019-06-01T14:22:34.914Z,36.90
2019-06-01T14:25:13.540Z,37.40
2019-06-01T14:27:36.977Z,36.90
2019-06-01T14:30:06.833Z,37.30
2019-06-01T14:32:35.548Z,36.50
2019-06-01T14:35:06.052Z,36.70
2019-06-01T14:37:34.549Z,36.20
2019-06-01T14:40:03.412Z,36.20
2019-06-01T14:42:31.903Z,36.60
2019-06-01T14:45:00.363Z,37.70
2019-06-01T14:47:28.791Z,35.70
2019-06-01T14:49:57.755Z,35.20
2019-06-01T14:52:26.325Z,34.90
2019-06-01T14:54:55.903Z,34.80
2019-06-01T14:57:24.472Z,34.90
2019-06-01T14:59:54.220Z,34.80
2019-06-01T15:02:22.688Z,34.10
2019-06-01T15:04:52.205Z,35.40
2019-06-01T15:07:21.017Z,36.50
2019-06-01T15:09:50.090Z,34.80
2019-06-01T15:12:18.693Z,36.20
2019-06-01T15:14:48.456Z,37.30
2019-06-01T15:17:17.096Z,37.90
2019-06-01T15:19:45.550Z,38.00
2019-06-01T15:22:14.015Z,38.50
2019-06-01T15:24:42.495Z,35.90
2019-06-01T15:27:11.029Z,36.60
2019-06-01T15:29:39.764Z,36.40
2019-06-01T15:32:08.460Z,38.20
2019-06-01T15:34:36.931Z,36.10
2019-06-01T15:37:05.345Z,36.20
2019-06-01T15:39:33.800Z,36.70
2019-06-01T15:42:02.240Z,37.10
2019-06-01T15:44:30.924Z,37.60
2019-06-01T15:46:59.816Z,37.60
2019-06-01T15:49:28.441Z,36.20
2019-06-01T15:51:57.851Z,37.40
2019-06-01T15:54:27.493Z,36.40
2019-06-01T15:56:56.346Z,37.20
2019-06-01T15:59:25.087Z,37.40
2019-06-01T16:01:55.007Z,37.10
2019-06-01T16:04:23.509Z,37.90
2019-06-01T16:06:53.030Z,37.20
2019-06-01T16:09:21.533Z,37.30
2019-06-01T16:11:50.217Z,39.80
2019-06-01T16:14:18.908Z,37.80
2019-06-01T16:16:47.332Z,38.00
2019-06-01T16:19:15.772Z,37.50
2019-06-01T16:21:44.211Z,37.00
2019-06-01T16:24:12.919Z,34.90
2019-06-01T16:26:41.345Z,36.70
2019-06-01T16:29:09.796Z,37.10
2019-06-01T16:31:38.227Z,35.90
2019-06-01T16:34:06.687Z,35.90
2019-06-01T16:36:35.364Z,35.40
2019-06-01T16:39:07.930Z,36.40
2019-06-01T16:41:35.769Z,35.40
2019-06-01T16:44:05.883Z,36.40
2019-06-01T16:46:34.671Z,36.70
2019-06-01T16:49:03.672Z,37.30
2019-06-01T16:51:53.615Z,36.50
2019-06-01T16:54:22.136Z,36.20
2019-06-01T16:56:50.828Z,37.20
2019-06-01T16:59:19.362Z,36.60
2019-06-01T17:01:48.614Z,38.10
2019-06-01T17:04:17.407Z,37.50
2019-06-01T17:06:46.967Z,37.80
2019-06-01T17:09:15.477Z,38.50
2019-06-01T17:11:43.916Z,38.20
2019-06-01T17:14:12.414Z,38.20
2019-06-01T17:16:40.942Z,38.50
2019-06-01T17:19:09.367Z,39.40
2019-06-01T17:21:37.813Z,39.40
2019-06-01T17:24:06.569Z,39.10
2019-06-01T17:26:35.252Z,39.40
2019-06-01T17:29:04.156Z,38.30
2019-06-01T17:31:32.710Z,38.70
2019-06-01T17:34:02.419Z,39.00
2019-06-01T17:36:30.970Z,38.90
2019-06-01T17:38:59.808Z,39.40
2019-06-01T17:41:28.586Z,38.60
2019-06-01T17:43:57.021Z,39.60
2019-06-01T17:46:25.477Z,39.60
2019-06-01T17:48:53.930Z,39.70
2019-06-01T17:51:22.386Z,39.90
2019-06-01T17:53:53.225Z,39.20
2019-06-01T17:56:21.267Z,39.40
2019-06-01T17:58:49.702Z,40.40
2019-06-01T18:01:18.156Z,40.80
2019-06-01T18:03:46.602Z,40.40
2019-06-01T18:06:15.321Z,40.40
2019-06-01T18:08:43.761Z,39.90
2019-06-01T18:11:12.464Z,39.70
2019-06-01T18:13:40.889Z,39.30
2019-06-01T18:16:10.380Z,39.70
2019-06-01T18:18:38.956Z,39.90
2019-06-01T18:21:08.436Z,40.30
2019-06-01T18:23:37.102Z,40.80
2019-06-01T18:26:06.936Z,41.00
2019-06-01T18:28:35.519Z,41.50
2019-06-01T18:31:04.570Z,41.60
2019-06-01T18:33:33.085Z,42.20
2019-06-01T18:36:01.526Z,42.60
2019-06-01T18:38:29.962Z,43.10
2019-06-01T18:41:09.241Z,45.00
2019-06-01T18:43:28.836Z,45.20
2019-06-01T18:45:57.859Z,46.50
2019-06-01T18:48:26.284Z,47.20
2019-06-01T18:50:54.751Z,46.60
2019-06-01T18:53:23.411Z,47.10
2019-06-01T18:55:52.117Z,48.40
2019-06-01T18:58:20.826Z,47.70
2019-06-01T19:00:49.253Z,48.70
2019-06-01T19:03:17.697Z,48.50
2019-06-01T19:05:46.128Z,49.80
2019-06-01T19:08:16.177Z,51.00
2019-06-01T19:10:44.961Z,51.50
2019-06-01T19:13:14.002Z,52.10
2019-06-01T19:15:42.629Z,54.10
2019-06-01T19:18:12.510Z,54.70
2019-06-01T19:20:41.093Z,55.90
2019-06-01T19:23:10.679Z,57.00
2019-06-01T19:25:39.235Z,57.70
2019-06-01T19:28:08.839Z,58.80
2019-06-01T19:30:40.349Z,59.20
2019-06-01T19:33:11.844Z,58.40
2019-06-01T19:35:39.611Z,58.70
2019-06-01T19:38:09.064Z,59.20
2019-06-01T19:40:39.010Z,60.20
2019-06-01T19:43:09.401Z,61.40
2019-06-01T19:45:38.195Z,62.30
2019-06-01T19:48:08.222Z,62.30
2019-06-01T19:50:37.124Z,62.40
2019-06-01T19:53:05.566Z,62.70
2019-06-01T19:55:34.341Z,62.90
2019-06-01T19:58:02.805Z,63.40
2019-06-01T20:00:31.231Z,64.30
2019-06-01T20:02:59.918Z,63.80
2019-06-01T20:05:28.687Z,64.30
2019-06-01T20:07:57.377Z,64.90
2019-06-01T20:10:25.820Z,64.50
2019-06-01T20:12:54.251Z,65.60
2019-06-01T20:15:23.019Z,66.80
2019-06-01T20:17:51.483Z,67.70
2019-06-01T20:20:20.705Z,67.70
2019-06-01T20:22:49.200Z,67.10
2019-06-01T20:25:17.915Z,67.20
2019-06-01T20:27:46.862Z,67.90
2019-06-01T20:30:17.662Z,68.60
2019-06-01T20:32:46.225Z,69.00
2019-06-01T20:35:16.038Z,69.60
2019-06-01T20:37:44.606Z,69.80
2019-06-01T20:40:14.214Z,70.00
2019-06-01T20:42:42.745Z,70.60
2019-06-01T20:45:12.537Z,69.70
2019-06-01T20:47:41.172Z,70.60
2019-06-01T20:50:10.163Z,70.80
2019-06-01T20:52:38.602Z,71.50
2019-06-01T20:55:08.112Z,71.70
2019-06-01T20:57:36.593Z,71.70
2019-06-01T21:00:09.102Z,71.90
2019-06-01T21:02:37.678Z,71.60
2019-06-01T21:05:07.256Z,70.90
2019-06-01T21:07:35.944Z,70.40
2019-06-01T21:10:06.785Z,69.60
2019-06-01T21:12:44.795Z,69.80
2019-06-01T21:15:09.018Z,70.10
2019-06-01T21:17:37.521Z,70.50
2019-06-01T21:20:07.947Z,71.60
2019-06-01T21:22:36.833Z,72.30
2019-06-01T21:25:09.088Z,72.20
2019-06-01T21:27:37.776Z,72.40
2019-06-01T21:30:10.117Z,73.00
2019-06-01T21:32:38.625Z,72.50
2019-06-01T21:35:07.147Z,73.10
2019-06-01T21:37:35.816Z,73.70
2019-06-01T21:40:06.937Z,73.70
2019-06-01T21:42:38.411Z,73.00
2019-06-01T21:45:11.089Z,72.40
2019-06-01T21:47:39.541Z,72.60
2019-06-01T21:50:08.642Z,72.70
2019-06-01T21:52:37.077Z,72.90
2019-06-01T21:55:08.328Z,72.90
2019-06-01T21:57:36.834Z,73.20
2019-06-01T22:00:13.894Z,73.10
2019-06-01T22:02:42.580Z,73.30
2019-06-01T22:05:11.169Z,74.10
2019-06-01T22:07:39.625Z,75.00
2019-06-01T22:10:08.103Z,75.80
2019-06-01T22:12:36.616Z,76.30
2019-06-01T22:15:06.554Z,76.00
2019-06-01T22:17:35.271Z,74.90
2019-06-01T22:20:05.515Z,75.10
2019-06-01T22:22:34.463Z,75.50
2019-06-01T22:25:03.711Z,76.60
2019-06-01T22:27:32.441Z,77.10
2019-06-01T22:30:00.864Z,77.40
2019-06-01T22:32:31.670Z,77.40
2019-06-01T22:35:00.127Z,77.80
2019-06-01T22:37:28.631Z,78.40
2019-06-01T22:39:57.062Z,77.80
2019-06-01T22:42:26.401Z,77.30
2019-06-01T22:44:54.975Z,77.30
2019-06-01T22:47:24.550Z,77.60
2019-06-01T22:49:53.079Z,78.80
2019-06-01T22:52:22.873Z,79.20
2019-06-01T22:54:51.713Z,79.60
2019-06-01T22:57:20.363Z,79.30
2019-06-01T22:59:48.893Z,78.80
2019-06-01T23:02:17.709Z,78.80
2019-06-01T23:04:46.130Z,80.30
2019-06-01T23:07:14.576Z,80.50
2019-06-01T23:09:43.441Z,80.30
2019-06-01T23:12:12.168Z,80.30
2019-06-01T23:14:40.841Z,80.10
2019-06-01T23:17:09.306Z,80.80
2019-06-01T23:19:37.749Z,81.30
2019-06-01T23:22:06.197Z,81.00
2019-06-01T23:24:34.638Z,81.30
2019-06-01T23:27:03.119Z,81.40
2019-06-01T23:29:32.455Z,81.90
2019-06-01T23:32:01.195Z,82.10
2019-06-01T23:34:30.676Z,82.90
2019-06-01T23:36:59.252Z,83.40
2019-06-01T23:39:28.741Z,83.50
2019-06-01T23:41:57.682Z,83.80
2019-06-01T23:44:30.292Z,83.80
2019-06-01T23:46:56.340Z,83.90
2019-06-01T23:49:25.115Z,84.10
2019-06-01T23:51:53.625Z,84.40
2019-06-01T23:54:23.377Z,84.50
2019-06-01T23:56:52.239Z,84.40
2019-06-01T23:59:20.932Z,84.60
